Catalina, AZ (85738)

12:38 PM MST on December 04, 2016 (GMT -0700)
Catalina, AZ | | Change Station

Elev 3058 ft 32.48 °N, 110.90 °W | Updated 1 minute ago

Clear
Clear
61.3 °F
Feels Like 61.3 °F
N
0.0
Wind Variable Wind from SW
Gusts 0.0 mph

Today
High -- | Low -- °F
--% Chance of Precip.
Yesterday
High -- | Low -- °F
Precip. -- in
Pressure 30.01 in
Visibility 10.0 miles
Clouds Clear
Dew Point 35 °F
Humidity 37%
Rainfall 0.00 in
Snow Depth Not available.
7:10 AM 5:17 PM
Waxing Crescent, 25% visible
METAR KDMA 041858Z AUTO 31005KT 10SM CLR 14/M02 A3004 RMK AO2 SLP160 T01381020 CHINO RWY30 $
Pressure 30.01 in
Visibility 10.0 miles
Clouds Clear
Dew Point 35 °F
Humidity 37%
Rainfall 0.00 in
Snow Depth Not available.
7:10 AM 5:17 PM
Waxing Crescent, 25% visible
METAR KDMA 041858Z AUTO 31005KT 10SM CLR 14/M02 A3004 RMK AO2 SLP160 T01381020 CHINO RWY30 $

10-Day Weather Forecast

Almanac

Astronomy

Dec. 04, 2016 Rise Set
Actual Time
Civil Twilight
Nautical Twilight
Astronomical Twilight
Moon
Length of Visible Light
Length of Day
Tomorrow will be .
, % of the Moon is Illuminated

Today's Extremes

State Highs State Lows

Community

WunderPhotos

Upload Photos

1,955,635 photos uploaded!

WunderBlog® & News

Nearby

Air Quality

  Air Quality AQ Index Pollutant
Not available.

Snow Depth

Station Depth Elevation

Earthquake Activity

City Distance Mag. Time & Date
Minimum magnitude displayed is 2.5.

Coastal Water Temperatures

Place Temperature

Stations

Nearby Weather Stations

Station Location Temp. Windchill Dew Point Humidity Wind Precip. Elev Updated Type
                   

Watches & Warnings

There are currently no watches in effect.